sensor_id;sensor_type;location;lat;lon;timestamp;temperature;humidity
1994;DHT22;998;49.906;10.908;2023-12-20T00:01:39;5.80;99.90
1994;DHT22;998;49.906;10.908;2023-12-20T00:04:06;5.80;99.90
1994;DHT22;998;49.906;10.908;2023-12-20T00:06:34;5.90;99.90
1994;DHT22;998;49.906;10.908;2023-12-20T00:09:01;5.80;99.90
1994;DHT22;998;49.906;10.908;2023-12-20T00:13:57;5.80;99.90
1994;DHT22;998;49.906;10.908;2023-12-20T00:16:25;5.80;99.90
1994;DHT22;998;49.906;10.908;2023-12-20T00:18:52;5.80;99.90
1994;DHT22;998;49.906;10.908;2023-12-20T00:21:20;5.80;99.90
1994;DHT22;998;49.906;10.908;2023-12-20T00:23:47;5.80;99.90
1994;DHT22;998;49.906;10.908;2023-12-20T00:26:14;5.80;99.90
1994;DHT22;998;49.906;10.908;2023-12-20T00:28:42;5.80;99.90
1994;DHT22;998;49.906;10.908;2023-12-20T00:31:11;5.80;99.90
1994;DHT22;998;49.906;10.908;2023-12-20T00:33:38;5.80;99.90
1994;DHT22;998;49.906;10.908;2023-12-20T00:36:09;5.80;99.90
1994;DHT22;998;49.906;10.908;2023-12-20T00:38:36;5.80;99.90
1994;DHT22;998;49.906;10.908;2023-12-20T00:41:04;5.80;99.90
1994;DHT22;998;49.906;10.908;2023-12-20T00:43:31;5.80;99.90
1994;DHT22;998;49.906;10.908;2023-12-20T00:45:58;5.80;99.90
1994;DHT22;998;49.906;10.908;2023-12-20T00:48:28;5.80;99.90
1994;DHT22;998;49.906;10.908;2023-12-20T00:50:56;5.80;99.90
1994;DHT22;998;49.906;10.908;2023-12-20T00:53:23;5.90;99.90
1994;DHT22;998;49.906;10.908;2023-12-20T00:55:51;5.90;99.90
1994;DHT22;998;49.906;10.908;2023-12-20T00:58:18;6.60;99.90
1994;DHT22;998;49.906;10.908;2023-12-20T01:00:45;5.90;99.90
1994;DHT22;998;49.906;10.908;2023-12-20T01:03:13;5.80;99.90
1994;DHT22;998;49.906;10.908;2023-12-20T01:05:42;5.80;99.90
1994;DHT22;998;49.906;10.908;2023-12-20T01:08:09;5.80;99.90
1994;DHT22;998;49.906;10.908;2023-12-20T01:10:37;5.80;99.90
1994;DHT22;998;49.906;10.908;2023-12-20T01:13:04;5.80;99.90
1994;DHT22;998;49.906;10.908;2023-12-20T01:15:32;5.80;99.90
1994;DHT22;998;49.906;10.908;2023-12-20T01:17:59;5.80;99.90
1994;DHT22;998;49.906;10.908;2023-12-20T01:20:27;5.80;99.90
1994;DHT22;998;49.906;10.908;2023-12-20T01:22:55;5.80;99.90
1994;DHT22;998;49.906;10.908;2023-12-20T01:25:23;5.80;99.90
1994;DHT22;998;49.906;10.908;2023-12-20T01:27:50;5.90;99.90
1994;DHT22;998;49.906;10.908;2023-12-20T01:30:18;5.80;99.90
1994;DHT22;998;49.906;10.908;2023-12-20T01:32:45;5.90;99.90
1994;DHT22;998;49.906;10.908;2023-12-20T01:35:13;5.90;99.90
1994;DHT22;998;49.906;10.908;2023-12-20T01:37:40;5.90;99.90
1994;DHT22;998;49.906;10.908;2023-12-20T01:40:10;5.90;99.90
1994;DHT22;998;49.906;10.908;2023-12-20T01:42:37;5.90;99.90
1994;DHT22;998;49.906;10.908;2023-12-20T01:45:06;5.90;99.90
1994;DHT22;998;49.906;10.908;2023-12-20T01:47:33;5.80;99.90
1994;DHT22;998;49.906;10.908;2023-12-20T01:50:01;5.80;99.90
1994;DHT22;998;49.906;10.908;2023-12-20T01:52:30;5.80;99.90
1994;DHT22;998;49.906;10.908;2023-12-20T01:54:59;5.80;99.90
1994;DHT22;998;49.906;10.908;2023-12-20T01:57:30;5.80;99.90
1994;DHT22;998;49.906;10.908;2023-12-20T01:59:58;5.80;99.90
1994;DHT22;998;49.906;10.908;2023-12-20T02:02:27;5.80;99.90
1994;DHT22;998;49.906;10.908;2023-12-20T02:04:56;5.80;99.90
1994;DHT22;998;49.906;10.908;2023-12-20T02:07:24;5.80;99.90
1994;DHT22;998;49.906;10.908;2023-12-20T02:09:51;5.90;99.90
1994;DHT22;998;49.906;10.908;2023-12-20T02:12:19;5.90;99.90
1994;DHT22;998;49.906;10.908;2023-12-20T02:14:48;5.80;99.90
1994;DHT22;998;49.906;10.908;2023-12-20T02:17:16;5.80;99.90
1994;DHT22;998;49.906;10.908;2023-12-20T02:19:43;5.80;99.90
1994;DHT22;998;49.906;10.908;2023-12-20T02:22:12;5.80;99.90
1994;DHT22;998;49.906;10.908;2023-12-20T02:24:40;5.80;99.90
1994;DHT22;998;49.906;10.908;2023-12-20T02:27:08;5.70;99.90
1994;DHT22;998;49.906;10.908;2023-12-20T02:29:35;5.80;99.90
1994;DHT22;998;49.906;10.908;2023-12-20T02:32:03;5.80;99.90
1994;DHT22;998;49.906;10.908;2023-12-20T02:34:31;5.80;99.90
1994;DHT22;998;49.906;10.908;2023-12-20T02:36:58;5.70;99.90
1994;DHT22;998;49.906;10.908;2023-12-20T02:39:27;5.70;99.90
1994;DHT22;998;49.906;10.908;2023-12-20T02:41:55;5.70;99.90
1994;DHT22;998;49.906;10.908;2023-12-20T02:44:22;5.70;99.90
1994;DHT22;998;49.906;10.908;2023-12-20T02:46:50;5.70;99.90
1994;DHT22;998;49.906;10.908;2023-12-20T02:49:17;5.70;99.90
1994;DHT22;998;49.906;10.908;2023-12-20T02:51:44;5.70;99.90
1994;DHT22;998;49.906;10.908;2023-12-20T02:54:12;5.70;99.90
1994;DHT22;998;49.906;10.908;2023-12-20T02:56:41;5.70;99.90
1994;DHT22;998;49.906;10.908;2023-12-20T02:59:08;5.70;99.90
1994;DHT22;998;49.906;10.908;2023-12-20T03:01:42;5.70;99.90
1994;DHT22;998;49.906;10.908;2023-12-20T03:04:09;5.70;99.90
1994;DHT22;998;49.906;10.908;2023-12-20T03:06:36;5.70;99.90
1994;DHT22;998;49.906;10.908;2023-12-20T03:09:04;5.70;99.90
1994;DHT22;998;49.906;10.908;2023-12-20T03:11:31;5.60;99.90
1994;DHT22;998;49.906;10.908;2023-12-20T03:13:59;5.60;99.90
1994;DHT22;998;49.906;10.908;2023-12-20T03:16:27;5.60;99.90
1994;DHT22;998;49.906;10.908;2023-12-20T03:18:54;5.70;99.90
1994;DHT22;998;49.906;10.908;2023-12-20T03:21:21;5.60;99.90
1994;DHT22;998;49.906;10.908;2023-12-20T03:23:49;5.60;99.90
1994;DHT22;998;49.906;10.908;2023-12-20T03:26:16;5.60;99.90
1994;DHT22;998;49.906;10.908;2023-12-20T03:28:43;5.60;99.90
1994;DHT22;998;49.906;10.908;2023-12-20T03:31:12;5.60;99.90
1994;DHT22;998;49.906;10.908;2023-12-20T03:33:39;5.60;99.90
1994;DHT22;998;49.906;10.908;2023-12-20T03:36:07;5.60;99.90
1994;DHT22;998;49.906;10.908;2023-12-20T03:38:35;5.60;99.90
1994;DHT22;998;49.906;10.908;2023-12-20T03:41:02;5.50;99.90
1994;DHT22;998;49.906;10.908;2023-12-20T03:43:30;5.50;99.90
1994;DHT22;998;49.906;10.908;2023-12-20T03:45:57;5.50;99.90
1994;DHT22;998;49.906;10.908;2023-12-20T03:48:27;5.60;99.90
1994;DHT22;998;49.906;10.908;2023-12-20T03:50:54;5.60;99.90
1994;DHT22;998;49.906;10.908;2023-12-20T03:53:21;5.60;99.90
1994;DHT22;998;49.906;10.908;2023-12-20T03:55:49;5.60;99.90
1994;DHT22;998;49.906;10.908;2023-12-20T03:58:16;5.50;99.90
1994;DHT22;998;49.906;10.908;2023-12-20T04:00:44;5.50;99.90
1994;DHT22;998;49.906;10.908;2023-12-20T04:03:11;5.40;99.90
1994;DHT22;998;49.906;10.908;2023-12-20T04:05:41;5.40;99.90
1994;DHT22;998;49.906;10.908;2023-12-20T04:08:09;5.40;99.90
1994;DHT22;998;49.906;10.908;2023-12-20T04:10:37;5.40;99.90
1994;DHT22;998;49.906;10.908;2023-12-20T04:13:04;5.40;99.90
1994;DHT22;998;49.906;10.908;2023-12-20T04:15:31;5.40;99.90
1994;DHT22;998;49.906;10.908;2023-12-20T04:17:59;5.40;99.90
1994;DHT22;998;49.906;10.908;2023-12-20T04:20:26;5.40;99.90
1994;DHT22;998;49.906;10.908;2023-12-20T04:22:55;5.40;99.90
1994;DHT22;998;49.906;10.908;2023-12-20T04:25:22;5.40;99.90
1994;DHT22;998;49.906;10.908;2023-12-20T04:27:50;5.40;99.90
1994;DHT22;998;49.906;10.908;2023-12-20T04:30:17;5.40;99.90
1994;DHT22;998;49.906;10.908;2023-12-20T04:32:45;5.40;99.90
1994;DHT22;998;49.906;10.908;2023-12-20T04:35:12;5.30;99.90
1994;DHT22;998;49.906;10.908;2023-12-20T04:37:39;5.30;99.90
1994;DHT22;998;49.906;10.908;2023-12-20T04:40:09;5.30;99.90
1994;DHT22;998;49.906;10.908;2023-12-20T04:42:37;5.30;99.90
1994;DHT22;998;49.906;10.908;2023-12-20T04:45:05;5.30;99.90
1994;DHT22;998;49.906;10.908;2023-12-20T04:47:32;5.30;99.90
1994;DHT22;998;49.906;10.908;2023-12-20T04:50:00;5.30;99.90
1994;DHT22;998;49.906;10.908;2023-12-20T04:52:28;5.30;99.90
1994;DHT22;998;49.906;10.908;2023-12-20T04:54:55;5.40;99.90
1994;DHT22;998;49.906;10.908;2023-12-20T04:57:24;5.30;99.90
1994;DHT22;998;49.906;10.908;2023-12-20T04:59:51;5.30;99.90
1994;DHT22;998;49.906;10.908;2023-12-20T05:02:19;5.40;99.90
1994;DHT22;998;49.906;10.908;2023-12-20T05:04:46;5.40;99.90
1994;DHT22;998;49.906;10.908;2023-12-20T05:07:14;5.30;99.90
1994;DHT22;998;49.906;10.908;2023-12-20T05:09:41;5.30;99.90
1994;DHT22;998;49.906;10.908;2023-12-20T05:12:08;5.30;99.90
1994;DHT22;998;49.906;10.908;2023-12-20T05:14:40;5.40;99.90
1994;DHT22;998;49.906;10.908;2023-12-20T05:17:07;5.40;99.90
1994;DHT22;998;49.906;10.908;2023-12-20T05:19:34;5.40;99.90
1994;DHT22;998;49.906;10.908;2023-12-20T05:22:02;5.40;99.90
1994;DHT22;998;49.906;10.908;2023-12-20T05:24:29;5.30;99.90
1994;DHT22;998;49.906;10.908;2023-12-20T05:26:57;5.40;99.90
1994;DHT22;998;49.906;10.908;2023-12-20T05:29:24;5.30;99.90
1994;DHT22;998;49.906;10.908;2023-12-20T05:31:53;5.30;99.90
1994;DHT22;998;49.906;10.908;2023-12-20T05:34:20;5.40;99.90
1994;DHT22;998;49.906;10.908;2023-12-20T05:36:48;5.40;99.90
1994;DHT22;998;49.906;10.908;2023-12-20T05:39:15;5.40;99.90
1994;DHT22;998;49.906;10.908;2023-12-20T05:41:43;5.40;99.90
1994;DHT22;998;49.906;10.908;2023-12-20T05:44:10;5.40;99.90
1994;DHT22;998;49.906;10.908;2023-12-20T05:46:37;5.40;99.90
1994;DHT22;998;49.906;10.908;2023-12-20T05:49:07;5.40;99.90
1994;DHT22;998;49.906;10.908;2023-12-20T05:51:34;5.40;99.90
1994;DHT22;998;49.906;10.908;2023-12-20T05:54:02;5.40;99.90
1994;DHT22;998;49.906;10.908;2023-12-20T05:56:30;5.50;99.90
1994;DHT22;998;49.906;10.908;2023-12-20T05:58:57;5.50;99.90
1994;DHT22;998;49.906;10.908;2023-12-20T06:01:25;5.40;99.90
1994;DHT22;998;49.906;10.908;2023-12-20T06:03:53;5.50;99.90
1994;DHT22;998;49.906;10.908;2023-12-20T06:06:21;5.40;99.90
1994;DHT22;998;49.906;10.908;2023-12-20T06:08:49;5.40;99.90
1994;DHT22;998;49.906;10.908;2023-12-20T06:11:16;5.40;99.90
1994;DHT22;998;49.906;10.908;2023-12-20T06:13:44;5.50;99.90
1994;DHT22;998;49.906;10.908;2023-12-20T06:16:11;5.50;99.90
1994;DHT22;998;49.906;10.908;2023-12-20T06:18:38;5.60;99.90
1994;DHT22;998;49.906;10.908;2023-12-20T06:21:06;5.60;99.90
1994;DHT22;998;49.906;10.908;2023-12-20T06:23:35;5.70;99.90
1994;DHT22;998;49.906;10.908;2023-12-20T06:26:03;5.60;99.90
1994;DHT22;998;49.906;10.908;2023-12-20T06:28:30;5.60;99.90
1994;DHT22;998;49.906;10.908;2023-12-20T06:30:58;5.60;99.90
1994;DHT22;998;49.906;10.908;2023-12-20T06:33:26;5.60;99.90
1994;DHT22;998;49.906;10.908;2023-12-20T06:35:55;5.60;99.90
1994;DHT22;998;49.906;10.908;2023-12-20T06:38:22;5.60;99.90
1994;DHT22;998;49.906;10.908;2023-12-20T06:40:51;5.60;99.90
1994;DHT22;998;49.906;10.908;2023-12-20T06:43:18;5.60;99.90
1994;DHT22;998;49.906;10.908;2023-12-20T06:45:46;5.60;99.90
1994;DHT22;998;49.906;10.908;2023-12-20T06:48:13;5.60;99.90
1994;DHT22;998;49.906;10.908;2023-12-20T06:50:40;5.70;99.90
1994;DHT22;998;49.906;10.908;2023-12-20T06:53:08;5.60;99.90
1994;DHT22;998;49.906;10.908;2023-12-20T06:55:35;5.60;99.90
1994;DHT22;998;49.906;10.908;2023-12-20T06:58:05;5.60;99.90
1994;DHT22;998;49.906;10.908;2023-12-20T07:00:32;5.60;99.90
1994;DHT22;998;49.906;10.908;2023-12-20T07:03:00;5.60;99.90
1994;DHT22;998;49.906;10.908;2023-12-20T07:05:28;5.60;99.90
1994;DHT22;998;49.906;10.908;2023-12-20T07:07:55;5.60;99.90
1994;DHT22;998;49.906;10.908;2023-12-20T07:10:22;5.70;99.90
1994;DHT22;998;49.906;10.908;2023-12-20T07:12:50;5.60;99.90
1994;DHT22;998;49.906;10.908;2023-12-20T07:15:19;5.60;99.90
1994;DHT22;998;49.906;10.908;2023-12-20T07:17:47;5.60;99.90
1994;DHT22;998;49.906;10.908;2023-12-20T07:20:14;5.50;99.90
1994;DHT22;998;49.906;10.908;2023-12-20T07:22:42;5.50;99.90
1994;DHT22;998;49.906;10.908;2023-12-20T07:25:09;5.50;99.90
1994;DHT22;998;49.906;10.908;2023-12-20T07:27:37;5.50;99.90
1994;DHT22;998;49.906;10.908;2023-12-20T07:30:05;5.50;99.90
1994;DHT22;998;49.906;10.908;2023-12-20T07:32:34;5.50;99.90
1994;DHT22;998;49.906;10.908;2023-12-20T07:35:02;5.50;99.90
1994;DHT22;998;49.906;10.908;2023-12-20T07:37:29;5.50;99.90
1994;DHT22;998;49.906;10.908;2023-12-20T07:39:56;5.50;99.90
1994;DHT22;998;49.906;10.908;2023-12-20T07:42:24;5.50;99.90
1994;DHT22;998;49.906;10.908;2023-12-20T07:44:51;5.50;99.90
1994;DHT22;998;49.906;10.908;2023-12-20T07:47:19;5.50;99.90
1994;DHT22;998;49.906;10.908;2023-12-20T07:49:49;5.60;99.90
1994;DHT22;998;49.906;10.908;2023-12-20T07:52:17;5.60;99.90
1994;DHT22;998;49.906;10.908;2023-12-20T07:54:45;5.60;99.90
1994;DHT22;998;49.906;10.908;2023-12-20T07:57:12;5.60;99.90
1994;DHT22;998;49.906;10.908;2023-12-20T07:59:40;5.60;99.90
1994;DHT22;998;49.906;10.908;2023-12-20T08:02:07;5.60;99.90
1994;DHT22;998;49.906;10.908;2023-12-20T08:04:34;5.60;99.90
1994;DHT22;998;49.906;10.908;2023-12-20T08:07:04;5.60;99.90
1994;DHT22;998;49.906;10.908;2023-12-20T08:09:31;5.50;99.90
1994;DHT22;998;49.906;10.908;2023-12-20T08:11:59;5.50;99.90
1994;DHT22;998;49.906;10.908;2023-12-20T08:14:26;5.50;99.90
1994;DHT22;998;49.906;10.908;2023-12-20T08:16:54;5.50;99.90
1994;DHT22;998;49.906;10.908;2023-12-20T08:19:21;5.50;99.90
1994;DHT22;998;49.906;10.908;2023-12-20T08:21:49;5.50;99.90
1994;DHT22;998;49.906;10.908;2023-12-20T08:24:17;5.50;99.90
1994;DHT22;998;49.906;10.908;2023-12-20T08:26:45;5.50;99.90
1994;DHT22;998;49.906;10.908;2023-12-20T08:29:13;5.50;99.90
1994;DHT22;998;49.906;10.908;2023-12-20T08:31:40;5.50;99.90
1994;DHT22;998;49.906;10.908;2023-12-20T08:34:08;5.50;99.90
1994;DHT22;998;49.906;10.908;2023-12-20T08:36:37;5.50;99.90
1994;DHT22;998;49.906;10.908;2023-12-20T08:39:05;5.50;99.90
1994;DHT22;998;49.906;10.908;2023-12-20T08:41:35;5.50;99.90
1994;DHT22;998;49.906;10.908;2023-12-20T08:44:03;5.50;99.90
1994;DHT22;998;49.906;10.908;2023-12-20T08:46:31;5.50;99.90
1994;DHT22;998;49.906;10.908;2023-12-20T08:48:58;5.50;99.90
1994;DHT22;998;49.906;10.908;2023-12-20T08:51:26;5.50;99.90
1994;DHT22;998;49.906;10.908;2023-12-20T08:53:53;5.60;99.90
1994;DHT22;998;49.906;10.908;2023-12-20T08:56:21;5.70;99.90
1994;DHT22;998;49.906;10.908;2023-12-20T08:58:50;5.70;99.90
1994;DHT22;998;49.906;10.908;2023-12-20T09:01:17;5.70;99.90
1994;DHT22;998;49.906;10.908;2023-12-20T09:03:44;5.80;99.90
1994;DHT22;998;49.906;10.908;2023-12-20T09:06:12;5.80;99.90
1994;DHT22;998;49.906;10.908;2023-12-20T09:08:39;5.80;99.90
1994;DHT22;998;49.906;10.908;2023-12-20T09:11:07;5.90;99.90
1994;DHT22;998;49.906;10.908;2023-12-20T09:13:34;5.90;99.90
1994;DHT22;998;49.906;10.908;2023-12-20T09:16:03;5.90;99.90
1994;DHT22;998;49.906;10.908;2023-12-20T09:18:31;5.90;99.90
1994;DHT22;998;49.906;10.908;2023-12-20T09:20:58;6.00;99.90
1994;DHT22;998;49.906;10.908;2023-12-20T09:23:26;6.00;99.90
1994;DHT22;998;49.906;10.908;2023-12-20T09:25:53;5.90;99.90
1994;DHT22;998;49.906;10.908;2023-12-20T09:28:21;4.90;99.90
1994;DHT22;998;49.906;10.908;2023-12-20T09:30:48;5.90;99.90
1994;DHT22;998;49.906;10.908;2023-12-20T09:33:17;5.90;99.90
1994;DHT22;998;49.906;10.908;2023-12-20T09:35:44;5.90;99.90
1994;DHT22;998;49.906;10.908;2023-12-20T09:38:12;6.00;99.90
1994;DHT22;998;49.906;10.908;2023-12-20T09:40:42;6.00;99.90
1994;DHT22;998;49.906;10.908;2023-12-20T09:43:11;6.00;99.90
1994;DHT22;998;49.906;10.908;2023-12-20T09:45:40;5.90;99.90
1994;DHT22;998;49.906;10.908;2023-12-20T09:48:11;6.00;99.90
1994;DHT22;998;49.906;10.908;2023-12-20T09:50:42;6.00;99.90
1994;DHT22;998;49.906;10.908;2023-12-20T09:53:14;6.10;99.90
1994;DHT22;998;49.906;10.908;2023-12-20T09:55:42;6.10;99.90
1994;DHT22;998;49.906;10.908;2023-12-20T09:58:09;6.20;99.90
1994;DHT22;998;49.906;10.908;2023-12-20T10:00:37;6.20;99.90
1994;DHT22;998;49.906;10.908;2023-12-20T10:03:06;6.20;99.90
1994;DHT22;998;49.906;10.908;2023-12-20T10:05:34;6.20;99.90
1994;DHT22;998;49.906;10.908;2023-12-20T10:08:04;6.20;99.90
1994;DHT22;998;49.906;10.908;2023-12-20T10:10:31;6.50;99.90
1994;DHT22;998;49.906;10.908;2023-12-20T10:13:04;6.20;99.90
1994;DHT22;998;49.906;10.908;2023-12-20T10:15:32;6.30;99.90
1994;DHT22;998;49.906;10.908;2023-12-20T10:18:00;6.30;99.90
1994;DHT22;998;49.906;10.908;2023-12-20T10:20:27;6.40;99.90
1994;DHT22;998;49.906;10.908;2023-12-20T10:22:56;6.40;99.90
1994;DHT22;998;49.906;10.908;2023-12-20T10:25:26;6.50;99.90
1994;DHT22;998;49.906;10.908;2023-12-20T10:28:08;6.60;99.90
1994;DHT22;998;49.906;10.908;2023-12-20T10:30:36;6.50;99.90
1994;DHT22;998;49.906;10.908;2023-12-20T10:33:05;6.50;99.90
1994;DHT22;998;49.906;10.908;2023-12-20T10:35:33;6.50;99.90
1994;DHT22;998;49.906;10.908;2023-12-20T10:38:03;6.50;99.90
1994;DHT22;998;49.906;10.908;2023-12-20T10:40:34;6.50;99.90
1994;DHT22;998;49.906;10.908;2023-12-20T10:43:04;6.50;99.90
1994;DHT22;998;49.906;10.908;2023-12-20T10:45:31;6.50;99.90
1994;DHT22;998;49.906;10.908;2023-12-20T10:47:59;6.50;99.90
1994;DHT22;998;49.906;10.908;2023-12-20T10:50:27;6.50;99.90
1994;DHT22;998;49.906;10.908;2023-12-20T10:52:55;6.40;99.90
1994;DHT22;998;49.906;10.908;2023-12-20T10:55:24;6.30;99.90
1994;DHT22;998;49.906;10.908;2023-12-20T10:57:57;6.30;99.90
1994;DHT22;998;49.906;10.908;2023-12-20T11:00:29;6.30;99.90
1994;DHT22;998;49.906;10.908;2023-12-20T11:03:00;6.40;99.90
1994;DHT22;998;49.906;10.908;2023-12-20T11:05:36;6.50;99.90
1994;DHT22;998;49.906;10.908;2023-12-20T11:08:09;6.50;99.90
1994;DHT22;998;49.906;10.908;2023-12-20T11:10:41;6.50;99.90
1994;DHT22;998;49.906;10.908;2023-12-20T11:13:17;6.50;99.90
1994;DHT22;998;49.906;10.908;2023-12-20T11:15:44;6.50;99.90
1994;DHT22;998;49.906;10.908;2023-12-20T11:18:12;6.50;99.90
1994;DHT22;998;49.906;10.908;2023-12-20T11:20:40;6.50;99.90
1994;DHT22;998;49.906;10.908;2023-12-20T11:23:09;6.60;99.90
1994;DHT22;998;49.906;10.908;2023-12-20T11:25:49;6.50;99.90
1994;DHT22;998;49.906;10.908;2023-12-20T11:28:23;6.50;99.90
1994;DHT22;998;49.906;10.908;2023-12-20T11:30:51;6.50;99.90
1994;DHT22;998;49.906;10.908;2023-12-20T11:33:22;6.50;99.90
1994;DHT22;998;49.906;10.908;2023-12-20T11:35:50;6.60;99.90
1994;DHT22;998;49.906;10.908;2023-12-20T11:38:19;6.60;99.90
1994;DHT22;998;49.906;10.908;2023-12-20T11:40:49;7.10;99.90
1994;DHT22;998;49.906;10.908;2023-12-20T11:43:31;7.40;99.90
1994;DHT22;998;49.906;10.908;2023-12-20T11:46:03;7.40;99.90
1994;DHT22;998;49.906;10.908;2023-12-20T11:48:31;7.20;99.90
1994;DHT22;998;49.906;10.908;2023-12-20T11:50:59;7.20;99.90
1994;DHT22;998;49.906;10.908;2023-12-20T11:53:26;7.20;99.90
1994;DHT22;998;49.906;10.908;2023-12-20T11:55:54;7.00;99.90
1994;DHT22;998;49.906;10.908;2023-12-20T11:58:22;6.90;99.90
1994;DHT22;998;49.906;10.908;2023-12-20T12:00:51;6.90;99.90
1994;DHT22;998;49.906;10.908;2023-12-20T12:03:19;6.80;99.90
1994;DHT22;998;49.906;10.908;2023-12-20T12:05:47;6.70;99.90
1994;DHT22;998;49.906;10.908;2023-12-20T12:08:14;6.70;99.90
1994;DHT22;998;49.906;10.908;2023-12-20T12:13:10;6.60;99.90
1994;DHT22;998;49.906;10.908;2023-12-20T12:15:40;6.50;99.90
1994;DHT22;998;49.906;10.908;2023-12-20T12:18:10;6.50;99.90
1994;DHT22;998;49.906;10.908;2023-12-20T12:20:37;6.40;99.90
1994;DHT22;998;49.906;10.908;2023-12-20T12:23:05;6.50;99.90
1994;DHT22;998;49.906;10.908;2023-12-20T12:25:35;6.50;99.90
1994;DHT22;998;49.906;10.908;2023-12-20T12:28:03;6.50;99.90
1994;DHT22;998;49.906;10.908;2023-12-20T12:30:31;6.50;99.90
1994;DHT22;998;49.906;10.908;2023-12-20T12:32:58;6.50;99.90
1994;DHT22;998;49.906;10.908;2023-12-20T12:35:27;6.50;99.90
1994;DHT22;998;49.906;10.908;2023-12-20T12:37:54;6.50;99.90
1994;DHT22;998;49.906;10.908;2023-12-20T12:40:22;6.40;99.90
1994;DHT22;998;49.906;10.908;2023-12-20T12:42:49;6.40;99.90
1994;DHT22;998;49.906;10.908;2023-12-20T12:45:16;6.40;99.90
1994;DHT22;998;49.906;10.908;2023-12-20T12:47:44;6.40;99.90
1994;DHT22;998;49.906;10.908;2023-12-20T12:50:12;6.40;99.90
1994;DHT22;998;49.906;10.908;2023-12-20T12:52:41;6.40;99.90
1994;DHT22;998;49.906;10.908;2023-12-20T12:55:08;6.40;99.90
1994;DHT22;998;49.906;10.908;2023-12-20T12:57:36;6.40;99.90
1994;DHT22;998;49.906;10.908;2023-12-20T13:00:04;6.40;99.90
1994;DHT22;998;49.906;10.908;2023-12-20T13:02:34;6.30;99.90
1994;DHT22;998;49.906;10.908;2023-12-20T13:05:03;6.40;99.90
1994;DHT22;998;49.906;10.908;2023-12-20T13:07:31;6.30;99.90
1994;DHT22;998;49.906;10.908;2023-12-20T13:10:00;6.30;99.90
1994;DHT22;998;49.906;10.908;2023-12-20T13:12:27;6.30;99.90
1994;DHT22;998;49.906;10.908;2023-12-20T13:14:55;6.30;99.90
1994;DHT22;998;49.906;10.908;2023-12-20T13:17:22;6.40;99.90
1994;DHT22;998;49.906;10.908;2023-12-20T13:19:49;6.40;99.90
1994;DHT22;998;49.906;10.908;2023-12-20T13:22:17;6.40;99.90
1994;DHT22;998;49.906;10.908;2023-12-20T13:24:44;6.40;99.90
1994;DHT22;998;49.906;10.908;2023-12-20T13:27:13;6.40;99.90
1994;DHT22;998;49.906;10.908;2023-12-20T13:29:41;6.30;99.90
1994;DHT22;998;49.906;10.908;2023-12-20T13:32:08;6.90;99.90
1994;DHT22;998;49.906;10.908;2023-12-20T13:34:36;6.30;99.90
1994;DHT22;998;49.906;10.908;2023-12-20T13:37:03;6.30;99.90
1994;DHT22;998;49.906;10.908;2023-12-20T13:39:31;6.40;99.90
1994;DHT22;998;49.906;10.908;2023-12-20T13:41:58;6.40;99.90
1994;DHT22;998;49.906;10.908;2023-12-20T13:44:27;6.40;99.90
1994;DHT22;998;49.906;10.908;2023-12-20T13:46:55;6.40;99.90
1994;DHT22;998;49.906;10.908;2023-12-20T13:49:22;6.40;99.90
1994;DHT22;998;49.906;10.908;2023-12-20T13:51:51;6.40;99.90
1994;DHT22;998;49.906;10.908;2023-12-20T13:54:20;6.40;99.90
1994;DHT22;998;49.906;10.908;2023-12-20T13:56:48;6.40;99.90
1994;DHT22;998;49.906;10.908;2023-12-20T13:59:15;6.40;99.90
1994;DHT22;998;49.906;10.908;2023-12-20T14:01:44;6.50;99.90
1994;DHT22;998;49.906;10.908;2023-12-20T14:04:11;6.50;99.90
1994;DHT22;998;49.906;10.908;2023-12-20T14:06:39;6.40;99.90
1994;DHT22;998;49.906;10.908;2023-12-20T14:09:08;6.50;99.90
1994;DHT22;998;49.906;10.908;2023-12-20T14:11:37;6.40;99.90
1994;DHT22;998;49.906;10.908;2023-12-20T14:14:07;6.50;99.90
1994;DHT22;998;49.906;10.908;2023-12-20T14:16:35;6.50;99.90
1994;DHT22;998;49.906;10.908;2023-12-20T14:19:05;6.50;99.90
1994;DHT22;998;49.906;10.908;2023-12-20T14:21:35;6.50;99.90
1994;DHT22;998;49.906;10.908;2023-12-20T14:24:02;6.40;99.90
1994;DHT22;998;49.906;10.908;2023-12-20T14:26:30;6.40;99.90
1994;DHT22;998;49.906;10.908;2023-12-20T14:28:58;6.50;99.90
1994;DHT22;998;49.906;10.908;2023-12-20T14:31:25;6.40;99.90
1994;DHT22;998;49.906;10.908;2023-12-20T14:33:53;6.40;99.90
1994;DHT22;998;49.906;10.908;2023-12-20T14:36:22;6.40;99.90
1994;DHT22;998;49.906;10.908;2023-12-20T14:38:49;6.40;99.90
1994;DHT22;998;49.906;10.908;2023-12-20T14:41:17;6.30;99.90
1994;DHT22;998;49.906;10.908;2023-12-20T14:43:45;6.30;99.90
1994;DHT22;998;49.906;10.908;2023-12-20T14:46:12;6.30;99.90
1994;DHT22;998;49.906;10.908;2023-12-20T14:48:41;6.30;99.90
1994;DHT22;998;49.906;10.908;2023-12-20T14:51:08;6.40;99.90
1994;DHT22;998;49.906;10.908;2023-12-20T14:53:37;6.40;99.90
1994;DHT22;998;49.906;10.908;2023-12-20T14:56:05;6.30;99.90
1994;DHT22;998;49.906;10.908;2023-12-20T14:58:33;6.40;99.90
1994;DHT22;998;49.906;10.908;2023-12-20T15:01:01;6.30;99.90
1994;DHT22;998;49.906;10.908;2023-12-20T15:03:28;6.30;99.90
1994;DHT22;998;49.906;10.908;2023-12-20T15:05:56;6.30;99.90
1994;DHT22;998;49.906;10.908;2023-12-20T15:08:25;6.30;99.90
1994;DHT22;998;49.906;10.908;2023-12-20T15:10:54;6.40;99.90
1994;DHT22;998;49.906;10.908;2023-12-20T15:13:21;6.40;99.90
1994;DHT22;998;49.906;10.908;2023-12-20T15:15:49;6.30;99.90
1994;DHT22;998;49.906;10.908;2023-12-20T15:18:16;6.30;99.90
1994;DHT22;998;49.906;10.908;2023-12-20T15:20:43;6.30;99.90
1994;DHT22;998;49.906;10.908;2023-12-20T15:23:11;6.20;99.90
1994;DHT22;998;49.906;10.908;2023-12-20T15:25:38;6.20;99.90
1994;DHT22;998;49.906;10.908;2023-12-20T15:28:07;6.20;99.90
1994;DHT22;998;49.906;10.908;2023-12-20T15:30:34;6.30;99.90
1994;DHT22;998;49.906;10.908;2023-12-20T15:33:02;6.20;99.90
1994;DHT22;998;49.906;10.908;2023-12-20T15:35:29;6.20;99.90
1994;DHT22;998;49.906;10.908;2023-12-20T15:37:57;6.20;99.90
1994;DHT22;998;49.906;10.908;2023-12-20T15:40:25;6.10;99.90
1994;DHT22;998;49.906;10.908;2023-12-20T15:42:52;6.10;99.90
1994;DHT22;998;49.906;10.908;2023-12-20T15:45:22;6.20;99.90
1994;DHT22;998;49.906;10.908;2023-12-20T15:47:50;6.20;99.90
1994;DHT22;998;49.906;10.908;2023-12-20T15:50:16;6.10;99.90
1994;DHT22;998;49.906;10.908;2023-12-20T15:52:44;6.20;99.90
1994;DHT22;998;49.906;10.908;2023-12-20T15:55:11;6.20;99.90
1994;DHT22;998;49.906;10.908;2023-12-20T15:57:39;6.20;99.90
1994;DHT22;998;49.906;10.908;2023-12-20T16:00:07;6.10;99.90
1994;DHT22;998;49.906;10.908;2023-12-20T16:02:36;6.10;99.90
1994;DHT22;998;49.906;10.908;2023-12-20T16:05:03;6.10;99.90
1994;DHT22;998;49.906;10.908;2023-12-20T16:07:31;6.10;99.90
1994;DHT22;998;49.906;10.908;2023-12-20T16:09:58;6.00;99.90
1994;DHT22;998;49.906;10.908;2023-12-20T16:12:26;6.00;99.90
1994;DHT22;998;49.906;10.908;2023-12-20T16:14:54;6.00;99.90
1994;DHT22;998;49.906;10.908;2023-12-20T16:17:21;6.00;99.90
1994;DHT22;998;49.906;10.908;2023-12-20T16:19:50;6.00;99.90
1994;DHT22;998;49.906;10.908;2023-12-20T16:22:17;6.00;99.90
1994;DHT22;998;49.906;10.908;2023-12-20T16:24:45;6.00;99.90
1994;DHT22;998;49.906;10.908;2023-12-20T16:27:12;6.00;99.90